createdAt,value
2017-08-15T00:00:13.547Z,17.50
2017-08-15T00:02:41.954Z,17.40
2017-08-15T00:05:10.353Z,17.40
2017-08-15T00:07:38.730Z,17.30
2017-08-15T00:10:07.130Z,17.30
2017-08-15T00:12:36.278Z,17.20
2017-08-15T00:15:04.681Z,17.20
2017-08-15T00:17:33.057Z,17.20
2017-08-15T00:20:01.484Z,17.20
2017-08-15T00:22:29.978Z,17.10
2017-08-15T00:24:58.370Z,17.10
2017-08-15T00:27:26.766Z,17.00
2017-08-15T00:29:55.144Z,16.80
2017-08-15T00:32:23.557Z,16.70
2017-08-15T00:34:52.710Z,16.60
2017-08-15T00:37:21.107Z,16.60
2017-08-15T00:39:49.495Z,16.60
2017-08-15T00:42:18.098Z,16.50
2017-08-15T00:44:47.245Z,16.50
2017-08-15T00:47:15.626Z,16.60
2017-08-15T00:49:44.019Z,16.50
2017-08-15T00:52:12.411Z,16.50
2017-08-15T00:54:40.813Z,16.40
2017-08-15T00:57:09.198Z,16.40
2017-08-15T00:59:37.605Z,16.40
2017-08-15T01:02:05.638Z,16.40
2017-08-15T01:04:34.018Z,16.40
2017-08-15T01:07:02.416Z,16.30
2017-08-15T01:09:30.817Z,16.20
2017-08-15T01:11:59.209Z,16.10
2017-08-15T01:14:27.582Z,16.10
2017-08-15T01:16:56.005Z,16.00
2017-08-15T01:19:24.390Z,16.00
2017-08-15T01:21:52.435Z,16.00
2017-08-15T01:24:21.573Z,15.90
2017-08-15T01:26:49.971Z,15.90
2017-08-15T01:29:18.358Z,15.80
2017-08-15T01:31:46.730Z,15.70
2017-08-15T01:34:15.132Z,15.60
2017-08-15T01:36:43.511Z,15.70
2017-08-15T01:39:11.912Z,15.70
2017-08-15T01:41:41.078Z,15.60
2017-08-15T01:44:09.475Z,15.60
2017-08-15T01:46:37.850Z,15.60
2017-08-15T01:49:07.079Z,15.60
2017-08-15T01:51:35.455Z,15.60
2017-08-15T01:54:03.830Z,15.70
2017-08-15T01:56:32.243Z,15.70
2017-08-15T01:59:00.629Z,15.70
2017-08-15T02:01:29.027Z,15.70
2017-08-15T02:03:57.426Z,15.60
2017-08-15T02:06:26.593Z,15.60
2017-08-15T02:08:54.968Z,15.60
2017-08-15T02:11:23.494Z,15.50
2017-08-15T02:13:51.887Z,15.50
2017-08-15T02:16:20.266Z,15.50
2017-08-15T02:18:48.340Z,15.40
2017-08-15T02:21:16.715Z,15.50
2017-08-15T02:23:45.110Z,15.50
2017-08-15T02:26:13.520Z,15.50
2017-08-15T02:28:41.921Z,15.50
2017-08-15T02:31:10.346Z,15.60
2017-08-15T02:33:38.763Z,15.60
2017-08-15T02:36:07.159Z,15.50
2017-08-15T02:38:35.545Z,15.50
2017-08-15T02:41:03.943Z,15.50
2017-08-15T02:43:32.339Z,15.50
2017-08-15T02:46:00.738Z,15.40
2017-08-15T02:48:29.130Z,15.30
2017-08-15T02:50:57.523Z,15.20
2017-08-15T02:53:26.670Z,15.20
2017-08-15T02:55:55.309Z,15.20
2017-08-15T02:58:24.469Z,15.30
2017-08-15T03:00:52.857Z,15.30
2017-08-15T03:03:21.930Z,15.20
2017-08-15T03:05:50.321Z,15.20
2017-08-15T03:08:18.719Z,15.20
2017-08-15T03:10:47.101Z,15.30
2017-08-15T03:13:16.254Z,15.50
2017-08-15T03:15:44.638Z,15.50
2017-08-15T03:18:13.262Z,15.50
2017-08-15T03:20:41.638Z,15.60
2017-08-15T03:23:10.794Z,15.60
2017-08-15T03:25:39.174Z,15.60
2017-08-15T03:28:07.585Z,15.60
2017-08-15T03:30:36.768Z,15.80
2017-08-15T03:33:05.165Z,15.80
2017-08-15T03:35:34.339Z,15.90
2017-08-15T03:38:02.729Z,15.80
2017-08-15T03:40:31.338Z,16.00
2017-08-15T03:42:59.730Z,16.10
2017-08-15T03:45:28.115Z,16.00
2017-08-15T03:47:56.514Z,16.00
2017-08-15T03:50:24.897Z,16.00
2017-08-15T03:52:53.295Z,16.10
2017-08-15T03:55:21.676Z,16.10
2017-08-15T03:57:50.073Z,16.20
2017-08-15T04:00:19.230Z,16.10
2017-08-15T04:02:47.653Z,16.10
2017-08-15T04:05:16.049Z,16.00
2017-08-15T04:07:44.433Z,15.80
2017-08-15T04:10:12.838Z,15.70
2017-08-15T04:12:41.216Z,15.70
2017-08-15T04:15:09.627Z,15.70
2017-08-15T04:17:38.001Z,15.60
2017-08-15T04:20:06.419Z,15.50
2017-08-15T04:22:34.823Z,15.50
2017-08-15T04:25:03.250Z,15.50
2017-08-15T04:27:31.653Z,15.50
2017-08-15T04:30:00.055Z,15.40
2017-08-15T04:32:28.454Z,15.30
2017-08-15T04:34:57.073Z,15.40
2017-08-15T04:37:26.247Z,15.30
2017-08-15T04:39:54.645Z,15.40
2017-08-15T04:42:23.954Z,15.40
2017-08-15T04:44:53.096Z,15.40
2017-08-15T04:47:21.481Z,15.40
2017-08-15T04:49:50.010Z,15.40
2017-08-15T04:52:19.155Z,15.40
2017-08-15T04:54:47.541Z,15.40
2017-08-15T04:57:16.326Z,15.40
2017-08-15T04:59:44.701Z,15.50
2017-08-15T05:02:13.090Z,15.50
2017-08-15T05:04:41.714Z,15.60
2017-08-15T05:07:10.876Z,16.00
2017-08-15T05:09:39.266Z,16.00
2017-08-15T05:12:07.882Z,16.00
2017-08-15T05:14:36.282Z,16.20
2017-08-15T05:17:04.675Z,16.20
2017-08-15T05:19:33.324Z,16.20
2017-08-15T05:22:01.787Z,16.30
2017-08-15T05:24:30.952Z,16.80
2017-08-15T05:26:59.495Z,16.70
2017-08-15T05:29:27.876Z,16.90
2017-08-15T05:31:56.261Z,17.10
2017-08-15T05:34:24.657Z,17.40
2017-08-15T05:36:56.640Z,17.70
2017-08-15T05:39:25.253Z,17.80
2017-08-15T05:41:54.402Z,18.40
2017-08-15T05:44:22.801Z,18.30
2017-08-15T05:46:51.603Z,18.50
2017-08-15T05:49:20.747Z,18.80
2017-08-15T05:51:49.136Z,18.80
2017-08-15T05:54:17.776Z,19.00
2017-08-15T05:56:46.172Z,19.20
2017-08-15T05:59:14.563Z,19.40
2017-08-15T06:01:43.138Z,19.90
2017-08-15T06:04:11.512Z,20.20
2017-08-15T06:06:39.892Z,20.50
2017-08-15T06:09:08.546Z,20.60
2017-08-15T06:11:37.710Z,20.80
2017-08-15T06:14:06.101Z,20.80
2017-08-15T06:16:34.515Z,20.80
2017-08-15T06:19:02.913Z,21.00
2017-08-15T06:21:31.296Z,21.20
2017-08-15T06:23:59.953Z,21.40
2017-08-15T06:26:28.339Z,21.70
2017-08-15T06:28:56.722Z,21.90
2017-08-15T06:31:25.310Z,22.10
2017-08-15T06:33:53.797Z,22.20
2017-08-15T06:36:22.209Z,22.30
2017-08-15T06:38:50.601Z,22.30
2017-08-15T06:41:19.004Z,22.30
2017-08-15T06:43:47.383Z,22.30
2017-08-15T06:46:15.834Z,22.30
2017-08-15T06:48:44.221Z,22.20
2017-08-15T06:51:12.598Z,22.20
2017-08-15T06:53:42.006Z,22.30
2017-08-15T06:56:11.178Z,22.20
2017-08-15T06:58:39.590Z,22.20
2017-08-15T07:01:08.173Z,22.10
2017-08-15T07:03:36.551Z,21.90
2017-08-15T07:06:04.952Z,21.80
2017-08-15T07:08:33.607Z,21.80
2017-08-15T07:11:01.981Z,21.70
2017-08-15T07:13:31.124Z,21.50
2017-08-15T07:15:59.563Z,21.50
2017-08-15T07:18:27.951Z,21.30
2017-08-15T07:20:56.342Z,21.40
2017-08-15T07:23:24.789Z,21.50
2017-08-15T07:25:53.166Z,21.70
2017-08-15T07:28:21.545Z,21.90
2017-08-15T07:30:50.950Z,22.20
2017-08-15T07:33:20.087Z,22.20
2017-08-15T07:35:48.465Z,22.20
2017-08-15T07:38:16.859Z,22.20
2017-08-15T07:40:45.234Z,22.20
2017-08-15T07:43:13.609Z,22.10
2017-08-15T07:45:42.368Z,21.90
2017-08-15T07:48:10.746Z,21.80
2017-08-15T07:50:39.142Z,21.70
2017-08-15T07:53:07.785Z,21.50
2017-08-15T07:55:36.944Z,21.20
2017-08-15T07:58:05.317Z,21.20
2017-08-15T08:00:33.870Z,21.10
2017-08-15T08:03:02.250Z,21.00
2017-08-15T08:05:30.624Z,21.00
2017-08-15T08:07:59.110Z,20.90
2017-08-15T08:10:27.503Z,20.80
2017-08-15T08:12:55.898Z,20.70
2017-08-15T08:15:24.312Z,20.60
2017-08-15T08:17:53.467Z,20.40
2017-08-15T08:20:21.838Z,20.40
2017-08-15T08:22:50.252Z,20.40
2017-08-15T08:25:18.627Z,20.30
2017-08-15T08:27:47.002Z,20.20
2017-08-15T08:30:15.450Z,20.00
2017-08-15T08:32:43.832Z,20.00
2017-08-15T08:35:12.214Z,19.80
2017-08-15T08:37:40.843Z,19.70
2017-08-15T08:40:10.003Z,19.60
2017-08-15T08:42:38.379Z,19.50
2017-08-15T08:45:06.791Z,19.50
2017-08-15T08:47:35.165Z,19.40
2017-08-15T08:50:04.158Z,19.40
2017-08-15T08:52:33.422Z,19.30
2017-08-15T08:55:01.825Z,19.30
2017-08-15T08:57:30.219Z,19.30
2017-08-15T08:59:59.798Z,19.10
2017-08-15T09:02:27.994Z,19.10
2017-08-15T09:04:56.390Z,19.10
2017-08-15T09:07:25.882Z,19.00
2017-08-15T09:09:54.865Z,18.90
2017-08-15T09:12:23.077Z,18.90
2017-08-15T09:14:51.585Z,18.80
2017-08-15T09:17:19.974Z,18.70
2017-08-15T09:19:48.150Z,18.50
2017-08-15T09:22:16.554Z,18.40
2017-08-15T09:24:45.512Z,18.30
2017-08-15T09:27:13.705Z,18.20
2017-08-15T09:29:46.807Z,18.10
2017-08-15T09:32:15.790Z,17.90
2017-08-15T09:34:43.990Z,17.90
2017-08-15T09:37:13.186Z,18.00
2017-08-15T09:39:42.341Z,18.00
2017-08-15T09:42:10.525Z,18.00
2017-08-15T09:44:39.148Z,18.10
2017-08-15T09:47:07.338Z,18.00
2017-08-15T09:49:35.715Z,17.90
2017-08-15T09:52:04.270Z,17.90
2017-08-15T09:54:33.414Z,17.90
2017-08-15T09:57:01.800Z,17.80
2017-08-15T09:59:30.642Z,17.90
2017-08-15T10:01:59.026Z,17.90
2017-08-15T10:04:27.448Z,18.00
2017-08-15T10:06:56.073Z,18.10
2017-08-15T10:09:25.026Z,18.60
2017-08-15T10:11:53.402Z,18.60
2017-08-15T10:14:21.855Z,19.00
2017-08-15T10:16:50.050Z,19.50
2017-08-15T10:19:18.450Z,19.80
2017-08-15T10:21:47.049Z,20.10
2017-08-15T10:24:16.007Z,21.00
2017-08-15T10:26:44.391Z,21.00
2017-08-15T10:29:12.929Z,21.60
2017-08-15T10:31:41.305Z,21.80
2017-08-15T10:34:09.801Z,22.20
2017-08-15T10:36:38.447Z,22.60
2017-08-15T10:39:06.826Z,22.90
2017-08-15T10:41:35.205Z,23.00
2017-08-15T10:44:04.370Z,23.50
2017-08-15T10:46:32.754Z,23.50
2017-08-15T10:49:01.144Z,23.60
2017-08-15T10:51:29.540Z,23.90
2017-08-15T10:53:58.682Z,24.10
2017-08-15T10:56:27.055Z,24.10
2017-08-15T10:58:55.332Z,24.30
2017-08-15T11:01:23.535Z,24.50
2017-08-15T11:03:51.914Z,24.60
2017-08-15T11:06:20.319Z,24.20
2017-08-15T11:08:49.474Z,24.00
2017-08-15T11:11:17.857Z,24.00
2017-08-15T11:13:46.257Z,24.20
2017-08-15T11:16:14.638Z,24.30
2017-08-15T11:18:43.018Z,24.50
2017-08-15T11:21:12.219Z,24.90
2017-08-15T11:23:41.016Z,25.00
2017-08-15T11:26:10.154Z,25.10
2017-08-15T11:28:38.654Z,25.10
2017-08-15T11:31:07.046Z,25.30
2017-08-15T11:33:35.430Z,25.40
2017-08-15T11:36:04.541Z,25.20
2017-08-15T11:38:33.700Z,25.30
2017-08-15T11:41:02.082Z,25.30
2017-08-15T11:43:30.898Z,24.90
2017-08-15T11:46:00.043Z,24.50
2017-08-15T11:48:28.446Z,24.50
2017-08-15T11:50:57.258Z,24.50
2017-08-15T11:53:26.420Z,24.70
2017-08-15T11:55:54.813Z,24.70
2017-08-15T11:58:23.224Z,24.80
2017-08-15T12:00:52.365Z,24.90
2017-08-15T12:03:20.752Z,24.90
2017-08-15T12:05:49.466Z,24.80
2017-08-15T12:08:18.615Z,24.70
2017-08-15T12:10:47.595Z,24.80
2017-08-15T12:13:18.649Z,24.20
2017-08-15T12:15:47.127Z,24.10
2017-08-15T12:18:15.512Z,23.60
2017-08-15T12:20:43.920Z,23.60
2017-08-15T12:23:12.305Z,23.40
2017-08-15T12:25:40.682Z,23.30
2017-08-15T12:28:09.371Z,23.30
2017-08-15T12:30:38.350Z,23.30
2017-08-15T12:33:06.745Z,23.20
2017-08-15T12:35:35.306Z,23.30
2017-08-15T12:38:03.693Z,23.40
2017-08-15T12:40:32.084Z,23.60
2017-08-15T12:43:01.261Z,23.70
2017-08-15T12:45:29.646Z,23.60
2017-08-15T12:47:58.038Z,23.60
2017-08-15T12:50:26.617Z,23.50
2017-08-15T12:52:55.770Z,23.30
2017-08-15T12:55:24.151Z,23.30
2017-08-15T12:57:52.676Z,23.20
2017-08-15T13:00:21.835Z,23.30
2017-08-15T13:02:50.223Z,23.30
2017-08-15T13:05:18.633Z,23.30
2017-08-15T13:07:47.800Z,23.10
2017-08-15T13:10:16.180Z,23.10
2017-08-15T13:12:44.782Z,23.10
2017-08-15T13:15:13.177Z,23.10
2017-08-15T13:17:41.557Z,23.00
2017-08-15T13:20:09.972Z,23.10
2017-08-15T13:22:38.175Z,23.30
2017-08-15T13:25:06.545Z,23.60
2017-08-15T13:27:34.958Z,23.60
2017-08-15T13:30:04.190Z,23.70
2017-08-15T13:32:32.386Z,23.60
2017-08-15T13:35:00.738Z,23.50
2017-08-15T13:37:28.938Z,23.50
2017-08-15T13:40:14.976Z,23.40
2017-08-15T13:43:00.813Z,23.30
2017-08-15T13:45:29.231Z,23.30
2017-08-15T13:47:58.207Z,23.30
2017-08-15T13:50:26.586Z,23.30
2017-08-15T13:52:56.944Z,23.30
2017-08-15T13:55:26.190Z,23.40
2017-08-15T13:57:54.437Z,23.40
2017-08-15T14:00:23.054Z,23.40
2017-08-15T14:02:51.254Z,23.40
2017-08-15T14:05:20.213Z,23.20
2017-08-15T14:07:48.594Z,23.10
2017-08-15T14:10:16.803Z,23.10
2017-08-15T14:12:45.015Z,23.00
2017-08-15T14:15:13.450Z,23.00
2017-08-15T14:17:42.410Z,23.00
2017-08-15T14:20:10.800Z,23.00
2017-08-15T14:22:39.222Z,23.10
2017-08-15T14:25:07.623Z,23.00
2017-08-15T14:27:36.005Z,23.00
2017-08-15T14:30:04.435Z,23.00
2017-08-15T14:32:33.394Z,23.00
2017-08-15T14:35:01.778Z,23.00
2017-08-15T14:37:30.169Z,22.90
2017-08-15T14:39:58.374Z,22.70
2017-08-15T14:42:26.755Z,22.70
2017-08-15T14:44:54.988Z,22.60
2017-08-15T14:47:23.919Z,22.50
2017-08-15T14:49:52.124Z,22.50
2017-08-15T14:52:20.321Z,22.50
2017-08-15T14:54:48.518Z,22.40
2017-08-15T14:57:17.617Z,22.30
2017-08-15T14:59:46.611Z,22.20
2017-08-15T15:02:15.558Z,22.20
2017-08-15T15:04:43.796Z,22.20
2017-08-15T15:07:12.013Z,22.20
2017-08-15T15:09:40.222Z,22.10
2017-08-15T15:12:09.205Z,22.00
2017-08-15T15:14:37.473Z,22.00
2017-08-15T15:17:05.694Z,22.00
2017-08-15T15:19:33.894Z,21.90
2017-08-15T15:22:02.101Z,21.90
2017-08-15T15:24:30.278Z,22.00
2017-08-15T15:26:59.253Z,22.00
2017-08-15T15:29:27.661Z,22.00
2017-08-15T15:31:56.614Z,21.90
2017-08-15T15:34:25.497Z,21.90
2017-08-15T15:36:54.142Z,22.00
2017-08-15T15:39:22.581Z,21.90
2017-08-15T15:41:50.786Z,22.00
2017-08-15T15:44:19.782Z,22.10
2017-08-15T15:46:48.254Z,22.10
2017-08-15T15:49:17.403Z,22.40
2017-08-15T15:51:45.898Z,22.30
2017-08-15T15:54:16.712Z,22.30
2017-08-15T15:56:45.342Z,22.30
2017-08-15T15:59:14.319Z,22.40
2017-08-15T16:01:42.705Z,22.40
2017-08-15T16:04:12.127Z,22.40
2017-08-15T16:06:41.266Z,22.30
2017-08-15T16:09:09.637Z,22.30
2017-08-15T16:11:38.274Z,22.30
2017-08-15T16:14:07.434Z,22.40
2017-08-15T16:16:35.814Z,22.40
2017-08-15T16:19:04.634Z,22.40
2017-08-15T16:21:33.777Z,22.40
2017-08-15T16:24:02.153Z,22.40
2017-08-15T16:26:30.732Z,22.40
2017-08-15T16:28:59.110Z,22.50
2017-08-15T16:31:27.497Z,22.50
2017-08-15T16:33:55.992Z,22.60
2017-08-15T16:36:24.370Z,22.70
2017-08-15T16:38:52.746Z,22.70
2017-08-15T16:41:20.955Z,22.70
2017-08-15T16:43:49.921Z,22.70
2017-08-15T16:46:18.111Z,22.70
2017-08-15T16:48:46.322Z,22.70
2017-08-15T16:51:15.641Z,22.70
2017-08-15T16:53:43.830Z,22.70
2017-08-15T16:56:12.336Z,22.80
2017-08-15T16:58:40.527Z,22.70
2017-08-15T17:01:09.584Z,22.80
2017-08-15T17:03:38.375Z,22.80
2017-08-15T17:06:06.778Z,22.70
2017-08-15T17:08:35.930Z,22.70
2017-08-15T17:11:04.763Z,22.70
2017-08-15T17:13:33.912Z,22.60
2017-08-15T17:16:02.294Z,22.60
2017-08-15T17:18:30.915Z,22.50
2017-08-15T17:20:59.294Z,22.40
2017-08-15T17:23:28.438Z,22.40
2017-08-15T17:25:56.869Z,22.40
2017-08-15T17:28:25.244Z,22.40
2017-08-15T17:30:54.399Z,22.40
2017-08-15T17:33:22.830Z,22.30
2017-08-15T17:35:51.977Z,22.20
2017-08-15T17:38:20.386Z,22.20
2017-08-15T17:40:48.926Z,22.30
2017-08-15T17:43:17.306Z,22.30
2017-08-15T17:45:45.694Z,22.30
2017-08-15T17:48:14.096Z,22.20
2017-08-15T17:50:42.496Z,22.10
2017-08-15T17:53:11.646Z,22.00
2017-08-15T17:55:40.138Z,22.00
2017-08-15T17:58:08.513Z,21.90
2017-08-15T18:00:36.934Z,21.70
2017-08-15T18:03:05.346Z,21.60
2017-08-15T18:05:33.834Z,21.70
2017-08-15T18:08:02.222Z,21.80
2017-08-15T18:10:30.677Z,21.80
2017-08-15T18:12:59.050Z,21.50
2017-08-15T18:15:27.453Z,21.50
2017-08-15T18:17:55.893Z,21.40
2017-08-15T18:20:25.054Z,21.30
2017-08-15T18:22:53.434Z,21.30
2017-08-15T18:25:21.974Z,21.30
2017-08-15T18:27:50.358Z,21.30
2017-08-15T18:30:18.753Z,21.20
2017-08-15T18:32:47.194Z,21.20
2017-08-15T18:35:15.577Z,21.00
2017-08-15T18:37:43.956Z,21.00
2017-08-15T18:40:12.514Z,21.00
2017-08-15T18:42:41.631Z,21.00
2017-08-15T18:45:10.048Z,21.00
2017-08-15T18:47:38.469Z,20.90
2017-08-15T18:50:06.874Z,20.80
2017-08-15T18:52:35.259Z,20.80
2017-08-15T18:55:03.835Z,20.80
2017-08-15T18:57:32.281Z,21.00
2017-08-15T19:00:01.434Z,21.00
2017-08-15T19:02:30.080Z,21.00
2017-08-15T19:04:58.498Z,21.10
2017-08-15T19:07:26.892Z,21.10
2017-08-15T19:09:55.518Z,21.00
2017-08-15T19:12:24.005Z,21.00
2017-08-15T19:14:52.434Z,21.00
2017-08-15T19:17:20.876Z,20.90
2017-08-15T19:19:49.296Z,20.80
2017-08-15T19:22:17.680Z,20.80
2017-08-15T19:24:46.438Z,20.70
2017-08-15T19:27:14.838Z,20.70
2017-08-15T19:29:43.231Z,20.70
2017-08-15T19:32:11.679Z,20.60
2017-08-15T19:34:40.058Z,20.60
2017-08-15T19:37:08.464Z,20.60
2017-08-15T19:39:38.141Z,20.50
2017-08-15T19:42:07.625Z,20.50
2017-08-15T19:44:36.281Z,20.40
2017-08-15T19:47:05.775Z,20.50
2017-08-15T19:49:34.595Z,20.30
2017-08-15T19:52:03.910Z,20.30
2017-08-15T19:54:33.045Z,20.30
2017-08-15T19:57:01.921Z,20.20
2017-08-15T19:59:30.852Z,20.10
2017-08-15T20:02:00.604Z,20.10
2017-08-15T20:04:29.257Z,20.00
2017-08-15T20:06:58.491Z,19.80
2017-08-15T20:09:27.029Z,19.70
2017-08-15T20:11:56.182Z,19.50
2017-08-15T20:14:24.569Z,19.50
2017-08-15T20:16:53.066Z,19.40
2017-08-15T20:19:21.516Z,19.10
2017-08-15T20:21:49.984Z,18.60
2017-08-15T20:24:18.437Z,18.40
2017-08-15T20:26:46.851Z,18.40
2017-08-15T20:29:15.302Z,18.50
2017-08-15T20:31:43.814Z,18.50
2017-08-15T20:34:12.314Z,18.30
2017-08-15T20:36:40.702Z,18.20
2017-08-15T20:39:10.341Z,17.80
2017-08-15T20:41:38.851Z,17.80
2017-08-15T20:44:07.323Z,17.60
2017-08-15T20:46:35.773Z,17.30
2017-08-15T20:49:04.171Z,17.20
2017-08-15T20:51:32.625Z,17.10
2017-08-15T20:54:02.085Z,16.90
2017-08-15T20:56:30.470Z,16.90
2017-08-15T20:58:58.876Z,16.80
2017-08-15T21:01:28.103Z,16.90
2017-08-15T21:03:56.466Z,16.90
2017-08-15T21:06:25.635Z,17.00
2017-08-15T21:08:54.253Z,17.00
2017-08-15T21:11:22.694Z,17.00
2017-08-15T21:13:51.098Z,17.10
2017-08-15T21:16:20.520Z,17.20
2017-08-15T21:18:48.913Z,17.10
2017-08-15T21:21:17.340Z,17.20
2017-08-15T21:23:45.890Z,17.10
2017-08-15T21:26:14.293Z,17.10
2017-08-15T21:28:42.666Z,17.10
2017-08-15T21:31:11.274Z,17.10
2017-08-15T21:33:40.410Z,17.00
2017-08-15T21:36:08.890Z,17.10
2017-08-15T21:38:37.534Z,17.10
2017-08-15T21:41:06.679Z,17.20
2017-08-15T21:43:35.086Z,17.20
2017-08-15T21:46:03.506Z,17.30
2017-08-15T21:48:31.906Z,17.30
2017-08-15T21:51:00.292Z,17.30
2017-08-15T21:53:28.929Z,17.40
2017-08-15T21:55:58.084Z,17.30
2017-08-15T21:58:26.481Z,17.30
2017-08-15T22:01:00.703Z,17.40
2017-08-15T22:03:29.136Z,17.30
2017-08-15T22:05:57.517Z,17.30
2017-08-15T22:08:25.959Z,17.30
2017-08-15T22:10:55.101Z,17.20
2017-08-15T22:13:23.582Z,17.20
2017-08-15T22:15:52.097Z,17.20
2017-08-15T22:18:20.471Z,17.30
2017-08-15T22:20:48.856Z,17.30
2017-08-15T22:23:17.258Z,17.30
2017-08-15T22:25:45.647Z,17.20
2017-08-15T22:28:14.022Z,17.20
2017-08-15T22:30:42.454Z,17.20
2017-08-15T22:33:10.843Z,17.20
2017-08-15T22:35:39.303Z,17.20
2017-08-15T22:38:07.885Z,17.20
2017-08-15T22:40:36.311Z,17.30
2017-08-15T22:43:04.819Z,17.30
2017-08-15T22:45:33.573Z,17.20
2017-08-15T22:48:02.722Z,17.20
2017-08-15T22:50:31.098Z,17.20
2017-08-15T22:52:59.747Z,17.30
2017-08-15T22:55:28.121Z,17.30
2017-08-15T22:57:56.502Z,17.30
2017-08-15T23:00:25.073Z,17.30
2017-08-15T23:02:54.209Z,17.30
2017-08-15T23:05:22.401Z,17.30
2017-08-15T23:07:50.817Z,17.30
2017-08-15T23:10:19.963Z,17.20
2017-08-15T23:12:48.341Z,17.20
2017-08-15T23:15:16.766Z,17.30
2017-08-15T23:17:45.139Z,17.20
2017-08-15T23:20:14.285Z,17.20
2017-08-15T23:22:42.937Z,17.20
2017-08-15T23:25:11.325Z,17.20
2017-08-15T23:27:39.706Z,17.20
2017-08-15T23:30:08.265Z,17.20
2017-08-15T23:32:37.423Z,17.20
2017-08-15T23:35:05.816Z,17.20
2017-08-15T23:37:34.532Z,17.10
2017-08-15T23:40:04.255Z,17.10
2017-08-15T23:42:32.629Z,17.00
2017-08-15T23:45:01.393Z,17.10
2017-08-15T23:47:30.560Z,16.70
2017-08-15T23:49:58.965Z,16.70
2017-08-15T23:52:28.329Z,16.60
2017-08-15T23:54:56.710Z,16.60
2017-08-15T23:57:25.090Z,16.60
2017-08-15T23:59:53.577Z,16.70
